Time;durP1;ratioP1;P1;durP2;ratioP2;P2;SDS_P1;SDS_P2;PMS_P1;PMS_P2;Temp;Humidity;BMP_temperature;BMP_pressure;BME280_temperature;BME280_humidity;BME280_pressure;Samples;Min_cycle;Max_cycle;Signal;HPM_P1;HPM_P2
2023/09/16 00:01:29;;;;;;;16.83;6.63;;;19.30;99.90;;;;;;4993489;28;20569;-72
2023/09/16 00:03:54;;;;;;;17.15;6.32;;;19.30;99.90;;;;;;5003437;28;20555;-74
2023/09/16 00:09:18;;;;;;;15.57;7.03;;;19.30;99.90;;;;;;5055471;23;20092;-72
2023/09/16 00:11:44;;;;;;;14.55;7.63;;;19.30;99.90;;;;;;4976657;28;20486;-72
2023/09/16 00:14:10;;;;;;;21.52;6.97;;;19.30;99.90;;;;;;4972718;28;20110;-72
2023/09/16 00:16:35;;;;;;;16.20;7.20;;;19.20;99.90;;;;;;4960065;28;20487;-72
2023/09/16 00:19:03;;;;;;;13.93;6.93;;;19.20;99.90;;;;;;4972392;28;20435;-72
2023/09/16 00:21:28;;;;;;;15.05;7.05;;;19.20;99.90;;;;;;4973177;28;20035;-72
2023/09/16 00:23:54;;;;;;;13.60;7.82;;;19.20;99.90;;;;;;4975231;28;20378;-71
2023/09/16 00:26:20;;;;;;;17.63;8.02;;;19.10;99.90;;;;;;4975645;28;20505;-72
2023/09/16 00:28:47;;;;;;;15.48;7.30;;;19.10;99.90;;;;;;4987312;28;20373;-72
2023/09/16 00:31:13;;;;;;;18.20;8.25;;;19.10;99.90;;;;;;4976064;28;20045;-72
2023/09/16 00:33:39;;;;;;;17.00;8.07;;;19.20;99.90;;;;;;4958554;28;20023;-72
2023/09/16 00:36:05;;;;;;;14.13;7.43;;;19.20;99.90;;;;;;4969857;28;20035;-72
2023/09/16 00:38:31;;;;;;;14.20;7.28;;;19.20;99.90;;;;;;4973285;28;20532;-73
2023/09/16 00:40:57;;;;;;;12.85;7.70;;;19.20;99.90;;;;;;4975575;28;20034;-72
2023/09/16 00:43:22;;;;;;;14.68;7.40;;;19.20;99.90;;;;;;4974471;28;20056;-72
2023/09/16 00:45:48;;;;;;;15.32;7.15;;;19.20;99.90;;;;;;4974411;28;20058;-73
2023/09/16 00:48:17;;;;;;;14.45;7.47;;;19.30;99.90;;;;;;4973643;28;20019;-72
2023/09/16 00:50:44;;;;;;;18.75;8.38;;;19.30;99.90;;;;;;4975664;28;20501;-74
2023/09/16 00:53:12;;;;;;;14.20;6.97;;;19.30;99.90;;;;;;4974193;28;20101;-74
2023/09/16 00:55:38;;;;;;;19.02;7.55;;;19.30;99.90;;;;;;4974229;28;20565;-71
2023/09/16 00:58:06;;;;;;;17.00;7.60;;;19.40;99.90;;;;;;4972276;28;20101;-72
2023/09/16 01:00:32;;;;;;;13.43;7.05;;;19.40;99.90;;;;;;4957837;28;20043;-72
2023/09/16 01:02:59;;;;;;;15.18;7.45;;;19.20;99.90;;;;;;4958145;28;20029;-73
2023/09/16 01:05:25;;;;;;;14.07;6.97;;;19.30;99.90;;;;;;4955988;28;20026;-73
2023/09/16 01:07:51;;;;;;;15.45;7.28;;;19.30;99.90;;;;;;4973311;28;20023;-76
2023/09/16 01:10:20;;;;;;;13.52;6.40;;;19.30;99.90;;;;;;4972726;28;20454;-74
2023/09/16 01:12:48;;;;;;;17.30;6.65;;;19.20;99.90;;;;;;4941213;29;20031;-72
2023/09/16 01:15:16;;;;;;;17.27;7.70;;;19.20;99.90;;;;;;4950122;28;20038;-72
2023/09/16 01:18:11;;;;;;;19.20;7.30;;;19.20;99.90;;;;;;4974804;28;20066;-72
2023/09/16 01:20:39;;;;;;;15.73;7.50;;;19.10;99.90;;;;;;4939066;28;20042;-73
2023/09/16 01:23:08;;;;;;;15.00;6.65;;;19.00;99.90;;;;;;4975110;28;20045;-72
2023/09/16 01:25:34;;;;;;;12.90;6.40;;;19.00;99.90;;;;;;4960855;28;20033;-72
2023/09/16 01:28:00;;;;;;;13.57;7.13;;;19.00;99.90;;;;;;4964270;28;20031;-72
2023/09/16 01:30:27;;;;;;;12.10;6.85;;;18.90;99.90;;;;;;4974730;28;20383;-73
2023/09/16 01:33:16;;;;;;;16.30;7.13;;;18.70;99.90;;;;;;4972317;28;20035;-72
2023/09/16 01:35:45;;;;;;;16.77;7.43;;;18.60;99.90;;;;;;4974613;28;20026;-73
2023/09/16 01:38:14;;;;;;;16.35;7.22;;;18.60;99.90;;;;;;4974349;28;20031;-72
2023/09/16 01:40:43;;;;;;;12.07;6.25;;;18.50;99.90;;;;;;4973471;28;20031;-72
2023/09/16 01:43:08;;;;;;;11.70;6.88;;;18.50;99.90;;;;;;4961424;28;20126;-73
2023/09/16 01:45:44;;;;;;;13.98;7.05;;;18.40;99.90;;;;;;4974389;28;20524;-73
2023/09/16 01:48:11;;;;;;;10.32;7.38;;;18.30;99.90;;;;;;4969238;28;20027;-75
2023/09/16 01:50:37;;;;;;;15.18;7.85;;;18.30;99.90;;;;;;4974271;28;20489;-72
2023/09/16 01:53:06;;;;;;;15.85;8.82;;;18.30;99.90;;;;;;4976984;28;20125;-74
2023/09/16 01:55:33;;;;;;;16.08;8.35;;;18.30;99.90;;;;;;4980127;28;20121;-72
2023/09/16 01:57:59;;;;;;;19.73;9.35;;;18.30;99.90;;;;;;4956447;28;20027;-73
2023/09/16 02:00:25;;;;;;;18.58;9.18;;;18.30;99.90;;;;;;4970960;28;20045;-72
2023/09/16 02:02:51;;;;;;;19.13;9.82;;;18.10;99.90;;;;;;4974318;28;20350;-73
2023/09/16 02:05:17;;;;;;;17.95;9.57;;;18.00;99.90;;;;;;4972663;28;20023;-72
2023/09/16 02:07:44;;;;;;;17.95;9.68;;;18.10;99.90;;;;;;4959833;28;20175;-73
2023/09/16 02:10:10;;;;;;;19.38;10.25;;;18.10;99.90;;;;;;4968382;28;20083;-72
2023/09/16 02:12:36;;;;;;;19.95;10.27;;;18.10;99.90;;;;;;4978809;28;20057;-73
2023/09/16 02:15:07;;;;;;;18.83;10.10;;;18.20;99.90;;;;;;4969009;28;20027;-72
2023/09/16 02:17:34;;;;;;;20.30;10.52;;;18.00;99.90;;;;;;4973901;28;20035;-71
2023/09/16 02:20:00;;;;;;;19.08;10.15;;;18.10;99.90;;;;;;4984164;28;20030;-73
2023/09/16 02:22:26;;;;;;;20.52;10.93;;;18.10;99.90;;;;;;4973812;28;20038;-72
2023/09/16 02:24:52;;;;;;;25.63;12.40;;;18.00;99.90;;;;;;4973898;28;20026;-75
2023/09/16 02:27:18;;;;;;;20.77;13.25;;;17.90;99.90;;;;;;4988467;28;20505;-74
2023/09/16 02:29:44;;;;;;;22.00;13.30;;;17.90;99.90;;;;;;4972407;28;20026;-72
2023/09/16 02:32:10;;;;;;;22.00;12.88;;;17.80;99.90;;;;;;4972338;28;20606;-71
2023/09/16 02:34:36;;;;;;;33.38;15.15;;;17.70;99.90;;;;;;4972492;28;20015;-75
2023/09/16 02:37:02;;;;;;;30.70;16.25;;;17.60;99.90;;;;;;4973545;28;20038;-73
2023/09/16 02:39:30;;;;;;;27.95;17.83;;;17.50;99.90;;;;;;4972393;28;20031;-73
2023/09/16 02:41:56;;;;;;;32.45;18.55;;;17.50;99.90;;;;;;4988146;28;20034;-74
2023/09/16 02:44:22;;;;;;;39.38;21.30;;;17.60;99.90;;;;;;4982747;28;20493;-71
2023/09/16 02:46:48;;;;;;;35.60;21.63;;;17.50;99.90;;;;;;4988037;28;20042;-75
2023/09/16 02:49:14;;;;;;;41.55;21.55;;;17.50;99.90;;;;;;4973357;28;20031;-74
2023/09/16 02:51:40;;;;;;;36.03;20.98;;;17.50;99.90;;;;;;4971719;28;20026;-72
2023/09/16 02:54:06;;;;;;;42.63;22.13;;;17.50;99.90;;;;;;4976787;28;20549;-74
2023/09/16 02:56:32;;;;;;;42.63;21.45;;;17.40;99.90;;;;;;4966735;28;20038;-72
2023/09/16 02:58:58;;;;;;;32.35;20.23;;;17.50;99.90;;;;;;4957597;28;20060;-72
2023/09/16 03:01:26;;;;;;;33.35;18.70;;;17.50;99.90;;;;;;4959364;28;20615;-72
2023/09/16 03:03:51;;;;;;;30.70;18.15;;;17.60;99.90;;;;;;4961734;28;20085;-73
2023/09/16 03:06:17;;;;;;;40.97;17.63;;;17.50;99.90;;;;;;4973221;28;20105;-74
2023/09/16 03:08:44;;;;;;;36.60;18.08;;;17.60;99.90;;;;;;4969366;28;20051;-71
2023/09/16 03:11:11;;;;;;;36.20;17.45;;;17.50;99.90;;;;;;4990246;28;20101;-71
2023/09/16 03:13:39;;;;;;;29.30;16.45;;;17.60;99.90;;;;;;4973205;28;20031;-72
2023/09/16 03:16:15;;;;;;;26.35;15.50;;;17.60;99.90;;;;;;4960094;28;20110;-71
2023/09/16 03:18:48;;;;;;;27.40;15.45;;;17.60;99.90;;;;;;4964279;28;20094;-74
2023/09/16 03:21:15;;;;;;;26.60;14.85;;;17.50;99.90;;;;;;4977028;28;20085;-73
2023/09/16 03:23:45;;;;;;;29.02;14.20;;;17.40;99.90;;;;;;4961577;28;20030;-72
2023/09/16 03:26:13;;;;;;;26.88;13.77;;;17.40;99.90;;;;;;4973045;28;20027;-74
2023/09/16 03:28:45;;;;;;;24.63;14.65;;;17.40;99.90;;;;;;4967554;28;20033;-73
2023/09/16 03:31:12;;;;;;;24.75;13.60;;;17.40;99.90;;;;;;4964433;28;20041;-76
2023/09/16 03:33:39;;;;;;;21.98;12.38;;;17.50;99.90;;;;;;4963985;28;20061;-73
2023/09/16 03:36:06;;;;;;;24.73;12.75;;;17.60;99.90;;;;;;4971928;28;20519;-74
2023/09/16 03:38:33;;;;;;;26.98;13.45;;;17.60;99.90;;;;;;4962019;28;20110;-73
2023/09/16 03:41:02;;;;;;;24.63;13.50;;;17.60;99.90;;;;;;4971989;28;20097;-73
2023/09/16 03:43:29;;;;;;;26.30;13.13;;;17.70;99.90;;;;;;4971588;28;20030;-72
2023/09/16 03:45:56;;;;;;;28.02;13.70;;;17.70;99.90;;;;;;4955916;28;20501;-72
2023/09/16 03:48:24;;;;;;;22.63;13.52;;;17.60;99.90;;;;;;4964547;28;20043;-73
2023/09/16 03:50:50;;;;;;;20.60;13.55;;;17.70;99.90;;;;;;4970085;28;20541;-72
2023/09/16 03:53:18;;;;;;;22.52;13.18;;;17.70;99.90;;;;;;4965394;28;20110;-73
2023/09/16 03:55:44;;;;;;;21.65;12.60;;;17.70;99.90;;;;;;4955820;28;20045;-76
2023/09/16 03:58:11;;;;;;;25.20;13.00;;;17.80;99.90;;;;;;4975194;28;20501;-74
2023/09/16 04:00:37;;;;;;;18.83;13.00;;;17.70;99.90;;;;;;4984634;28;20050;-76
2023/09/16 04:03:03;;;;;;;19.60;12.07;;;17.60;99.90;;;;;;4977862;28;20022;-74
2023/09/16 04:05:29;;;;;;;21.27;12.90;;;17.60;99.90;;;;;;4975154;28;20034;-74
2023/09/16 04:07:54;;;;;;;22.95;13.20;;;17.60;99.90;;;;;;4964845;28;20027;-74
2023/09/16 04:10:20;;;;;;;28.33;14.27;;;17.60;99.90;;;;;;4987431;28;20042;-74
2023/09/16 04:12:46;;;;;;;20.35;13.52;;;17.70;99.90;;;;;;4987983;28;20030;-73
2023/09/16 04:15:12;;;;;;;22.70;13.52;;;17.80;99.90;;;;;;4962345;28;20041;-77
2023/09/16 04:17:38;;;;;;;19.75;11.90;;;17.90;99.90;;;;;;4986904;28;20136;-74
2023/09/16 04:20:05;;;;;;;21.25;13.60;;;17.90;99.90;;;;;;4970993;28;20414;-73
2023/09/16 04:22:32;;;;;;;25.10;12.45;;;18.00;99.90;;;;;;4980401;28;20033;-73
2023/09/16 04:25:00;;;;;;;23.08;13.23;;;18.10;99.90;;;;;;4975101;28;20022;-73
2023/09/16 04:27:26;;;;;;;27.35;13.43;;;18.20;99.90;;;;;;4965003;28;20486;-76
2023/09/16 04:29:51;;;;;;;22.90;13.07;;;18.20;99.90;;;;;;4974775;28;20148;-74
2023/09/16 04:32:17;;;;;;;24.02;13.52;;;18.20;99.90;;;;;;4958543;28;20687;-73
2023/09/16 04:34:43;;;;;;;20.15;12.95;;;18.40;99.90;;;;;;4968669;28;20125;-73
2023/09/16 04:37:10;;;;;;;25.42;14.05;;;18.40;99.90;;;;;;4974651;28;20554;-76
2023/09/16 04:39:36;;;;;;;20.90;14.68;;;18.50;99.90;;;;;;4973911;28;20039;-73
2023/09/16 04:42:02;;;;;;;23.70;15.32;;;18.50;99.90;;;;;;4976106;28;20386;-74
2023/09/16 04:44:29;;;;;;;20.33;14.02;;;18.50;99.90;;;;;;4974528;28;20462;-73
2023/09/16 04:46:55;;;;;;;23.55;15.75;;;18.60;99.90;;;;;;4961671;28;20023;-73
2023/09/16 04:49:24;;;;;;;27.70;17.20;;;18.70;99.90;;;;;;4974379;28;20041;-73
2023/09/16 04:51:50;;;;;;;25.23;16.67;;;18.70;99.90;;;;;;4958436;28;20388;-74
2023/09/16 04:54:16;;;;;;;27.60;17.13;;;18.70;99.90;;;;;;4974231;28;20035;-74
2023/09/16 04:56:42;;;;;;;35.60;17.10;;;18.80;99.90;;;;;;4972855;28;20027;-73
2023/09/16 04:59:08;;;;;;;95.60;85.40;;;18.90;99.90;;;;;;4973658;28;20047;-72
2023/09/16 05:01:34;;;;;;;103.20;92.30;;;19.00;99.90;;;;;;4957778;28;20506;-73
2023/09/16 05:04:00;;;;;;;172.82;155.13;;;19.00;99.90;;;;;;4974563;28;20031;-75
2023/09/16 05:06:29;;;;;;;115.35;103.35;;;19.10;99.90;;;;;;4978553;28;20061;-73
2023/09/16 05:08:55;;;;;;;42.47;34.38;;;19.20;99.90;;;;;;4973975;28;20082;-73
2023/09/16 05:11:21;;;;;;;29.20;21.70;;;19.30;99.90;;;;;;4974524;28;20038;-72
2023/09/16 05:13:51;;;;;;;22.45;16.63;;;19.40;99.90;;;;;;4972972;28;20030;-73
2023/09/16 05:16:18;;;;;;;24.38;18.02;;;19.40;99.90;;;;;;4974393;28;20441;-75
2023/09/16 05:18:44;;;;;;;19.58;14.48;;;19.70;99.90;;;;;;4982630;28;20061;-74
2023/09/16 05:21:10;;;;;;;20.50;12.63;;;20.60;99.90;;;;;;4973809;28;20035;-74
2023/09/16 05:23:37;;;;;;;17.33;12.00;;;21.00;99.90;;;;;;4972882;28;20031;-76
2023/09/16 05:26:05;;;;;;;19.45;12.20;;;21.40;99.90;;;;;;4973555;28;20113;-72
2023/09/16 05:28:33;;;;;;;21.65;11.75;;;22.00;99.90;;;;;;4975968;28;20018;-77
2023/09/16 05:31:03;;;;;;;25.05;11.38;;;22.40;99.90;;;;;;4973287;28;20062;-72
2023/09/16 05:33:30;;;;;;;23.27;11.15;;;22.20;99.90;;;;;;4967408;28;20046;-74
2023/09/16 05:35:56;;;;;;;22.02;11.35;;;21.70;99.90;;;;;;4982716;28;20037;-72
2023/09/16 05:38:22;;;;;;;23.00;12.23;;;21.40;99.90;;;;;;4972876;28;20497;-77
2023/09/16 05:40:48;;;;;;;21.13;15.20;;;21.00;99.90;;;;;;4972506;28;20039;-74
2023/09/16 05:43:16;;;;;;;23.70;14.65;;;20.80;99.90;;;;;;4975544;28;20065;-73
2023/09/16 05:45:43;;;;;;;26.05;15.02;;;20.60;99.90;;;;;;4972804;28;20027;-73
2023/09/16 05:48:09;;;;;;;23.45;15.68;;;20.60;99.90;;;;;;4961039;28;20089;-77
2023/09/16 05:50:40;;;;;;;28.25;16.70;;;20.60;99.90;;;;;;4960145;28;20058;-73
2023/09/16 05:53:06;;;;;;;23.65;13.80;;;20.70;99.90;;;;;;4972400;28;20026;-73
2023/09/16 05:55:38;;;;;;;24.42;15.38;;;20.60;99.90;;;;;;4989856;28;20049;-74
2023/09/16 05:58:11;;;;;;;24.55;14.88;;;20.70;99.90;;;;;;4951820;28;20389;-75
2023/09/16 06:00:37;;;;;;;25.27;14.48;;;20.60;99.90;;;;;;4974356;28;20046;-74
2023/09/16 06:03:03;;;;;;;22.17;13.60;;;20.70;99.90;;;;;;4972777;28;20394;-73
2023/09/16 06:05:30;;;;;;;18.65;13.02;;;20.70;99.90;;;;;;4973245;28;20027;-73
2023/09/16 06:07:56;;;;;;;18.60;12.27;;;20.80;99.90;;;;;;4956200;28;20034;-72
2023/09/16 06:10:21;;;;;;;20.77;12.63;;;20.80;99.90;;;;;;4972343;28;20438;-74
2023/09/16 06:12:47;;;;;;;26.13;13.85;;;21.00;99.90;;;;;;4972392;28;20081;-75
2023/09/16 06:15:13;;;;;;;23.38;13.13;;;20.80;99.90;;;;;;4972598;28;20089;-72
2023/09/16 06:17:40;;;;;;;19.48;11.70;;;20.90;99.90;;;;;;4972049;28;20118;-74
2023/09/16 06:20:08;;;;;;;18.27;11.20;;;20.90;99.90;;;;;;4972382;28;20129;-73
2023/09/16 06:22:34;;;;;;;16.65;10.50;;;20.70;99.90;;;;;;4956433;28;20062;-73
2023/09/16 06:25:00;;;;;;;17.65;10.57;;;20.80;99.90;;;;;;4972624;28;20057;-74
2023/09/16 06:27:27;;;;;;;16.55;9.57;;;20.80;99.90;;;;;;4972763;28;20027;-75
2023/09/16 06:29:53;;;;;;;17.27;9.48;;;20.60;99.90;;;;;;4972371;28;20034;-72
2023/09/16 06:32:20;;;;;;;14.60;9.10;;;20.50;99.90;;;;;;4956652;28;20062;-76
2023/09/16 06:34:50;;;;;;;19.17;10.15;;;20.70;99.90;;;;;;4950077;29;20035;-73
2023/09/16 06:37:16;;;;;;;19.73;10.02;;;20.80;99.90;;;;;;4971077;28;20031;-72
2023/09/16 06:39:45;;;;;;;15.70;8.95;;;20.90;99.90;;;;;;4968510;28;20550;-73
2023/09/16 06:42:12;;;;;;;15.27;9.40;;;20.90;99.90;;;;;;4956052;28;20074;-74
2023/09/16 06:44:41;;;;;;;14.57;9.32;;;21.00;99.90;;;;;;4972508;28;20074;-74
2023/09/16 06:47:07;;;;;;;21.02;10.88;;;21.10;99.90;;;;;;4973570;28;20034;-72
2023/09/16 06:49:33;;;;;;;17.90;10.48;;;21.10;99.90;;;;;;4973808;28;20023;-73
2023/09/16 06:51:59;;;;;;;14.82;9.27;;;20.80;99.90;;;;;;4973273;28;20027;-73
2023/09/16 06:54:24;;;;;;;16.80;8.35;;;21.10;99.90;;;;;;4973520;28;20484;-75
2023/09/16 06:56:50;;;;;;;17.52;9.93;;;21.40;99.90;;;;;;4973167;28;20041;-74
2023/09/16 06:59:16;;;;;;;18.55;8.60;;;21.50;99.90;;;;;;4973353;28;20049;-74
2023/09/16 07:01:42;;;;;;;13.82;8.70;;;21.40;99.90;;;;;;4973097;28;20189;-75
2023/09/16 07:04:07;;;;;;;13.63;8.25;;;21.40;99.90;;;;;;4973895;28;20098;-73
2023/09/16 07:06:33;;;;;;;12.63;7.07;;;21.70;99.90;;;;;;4973095;28;20042;-75
2023/09/16 07:08:59;;;;;;;16.27;8.30;;;22.00;99.90;;;;;;4973077;28;20058;-73
2023/09/16 07:11:25;;;;;;;13.77;7.82;;;22.00;99.90;;;;;;4972950;28;20041;-74
2023/09/16 07:13:51;;;;;;;12.27;7.88;;;22.20;99.90;;;;;;4972781;28;20097;-73
2023/09/16 07:16:20;;;;;;;11.85;7.00;;;22.50;99.90;;;;;;4973048;28;20030;-73
2023/09/16 07:18:46;;;;;;;20.80;7.70;;;22.80;99.90;;;;;;4972725;28;20027;-74
2023/09/16 07:21:12;;;;;;;14.73;7.70;;;22.90;99.90;;;;;;4976477;28;20046;-72
2023/09/16 07:23:38;;;;;;;12.55;6.65;;;23.10;99.90;;;;;;4962787;28;20027;-72
2023/09/16 07:26:04;;;;;;;13.90;6.97;;;23.30;99.90;;;;;;4973373;28;20033;-74
2023/09/16 07:28:30;;;;;;;12.30;7.07;;;23.20;99.90;;;;;;4959472;28;20499;-72
2023/09/16 07:30:56;;;;;;;11.30;7.32;;;23.20;99.90;;;;;;4971946;28;20030;-72
2023/09/16 07:33:22;;;;;;;13.57;7.32;;;23.40;99.90;;;;;;4977129;28;20430;-72
2023/09/16 07:35:51;;;;;;;12.57;7.72;;;23.60;99.90;;;;;;4982249;28;20022;-71
2023/09/16 07:38:17;;;;;;;12.77;7.25;;;23.70;99.90;;;;;;4979846;28;20164;-71
2023/09/16 07:40:42;;;;;;;13.70;8.10;;;23.80;99.90;;;;;;4976233;28;20080;-72
2023/09/16 07:43:10;;;;;;;12.65;7.03;;;23.60;99.90;;;;;;4976429;28;20085;-72
2023/09/16 07:45:38;;;;;;;13.00;7.40;;;23.70;99.90;;;;;;4978329;28;20030;-72
2023/09/16 07:48:07;;;;;;;12.43;7.38;;;23.90;99.90;;;;;;4976266;28;20370;-72
2023/09/16 07:50:33;;;;;;;17.35;6.97;;;24.00;99.90;;;;;;4975669;28;20101;-72
2023/09/16 07:52:59;;;;;;;13.73;6.72;;;24.30;99.90;;;;;;4976358;28;20038;-73
2023/09/16 07:55:25;;;;;;;11.68;7.53;;;24.00;99.90;;;;;;4956422;28;20035;-73
2023/09/16 07:57:50;;;;;;;12.20;7.65;;;23.80;99.90;;;;;;4974640;28;20077;-73
2023/09/16 08:00:16;;;;;;;14.32;6.95;;;24.10;99.90;;;;;;4974851;28;20082;-73
2023/09/16 08:02:42;;;;;;;11.75;6.88;;;24.10;99.90;;;;;;4970542;28;20492;-73
2023/09/16 08:05:08;;;;;;;10.18;6.80;;;24.30;99.90;;;;;;4975043;28;20375;-73
2023/09/16 08:07:34;;;;;;;9.00;6.38;;;24.30;99.90;;;;;;4972824;28;20035;-72
2023/09/16 08:10:02;;;;;;;13.00;6.30;;;24.30;99.90;;;;;;4967589;28;20154;-73
2023/09/16 08:12:28;;;;;;;12.30;6.20;;;24.20;99.90;;;;;;4956430;29;20087;-72
2023/09/16 08:14:54;;;;;;;10.38;6.10;;;24.10;99.90;;;;;;4957517;29;20106;-71
2023/09/16 08:17:19;;;;;;;8.90;5.68;;;24.00;99.90;;;;;;4956651;29;20114;-73
2023/09/16 08:19:45;;;;;;;9.50;5.78;;;24.30;99.90;;;;;;4939057;29;20094;-74
2023/09/16 08:22:11;;;;;;;9.40;5.45;;;24.50;99.90;;;;;;4956619;29;20047;-73
2023/09/16 08:24:37;;;;;;;11.38;5.32;;;24.20;99.90;;;;;;4956612;29;20023;-72
2023/09/16 08:27:03;;;;;;;6.28;5.07;;;24.50;99.90;;;;;;4956503;29;20027;-72
2023/09/16 08:29:29;;;;;;;8.93;4.47;;;24.60;99.90;;;;;;4956715;29;20094;-72
2023/09/16 08:31:55;;;;;;;7.30;5.03;;;24.60;99.00;;;;;;4955194;29;20043;-71
2023/09/16 08:34:20;;;;;;;7.93;5.07;;;24.80;99.90;;;;;;4956541;29;20058;-72
2023/09/16 08:36:46;;;;;;;8.30;4.72;;;25.00;99.60;;;;;;4956549;29;20475;-72
2023/09/16 08:39:12;;;;;;;8.15;4.93;;;25.00;98.50;;;;;;4956700;29;20024;-73
2023/09/16 08:42:01;;;;;;;11.77;5.47;;;25.30;99.40;;;;;;4955964;28;20409;-72
2023/09/16 08:44:34;;;;;;;7.85;3.80;;;25.40;98.20;;;;;;4938978;29;20089;-73
2023/09/16 08:47:04;;;;;;;9.30;4.60;;;25.10;96.50;;;;;;4956384;29;20031;-72
2023/09/16 08:49:33;;;;;;;9.30;4.30;;;24.80;97.70;;;;;;4956224;29;20031;-72
2023/09/16 08:52:01;;;;;;;7.35;4.00;;;24.90;96.60;;;;;;4954992;29;20023;-72
2023/09/16 08:54:31;;;;;;;8.00;4.20;;;24.90;96.20;;;;;;4955330;29;20039;-72
2023/09/16 08:56:59;;;;;;;6.45;3.83;;;25.10;96.90;;;;;;4956154;29;20031;-72
2023/09/16 08:59:25;;;;;;;4.35;3.10;;;25.20;96.40;;;;;;4955659;29;20147;-74
2023/09/16 09:01:51;;;;;;;4.30;3.50;;;24.80;94.70;;;;;;4956165;29;20051;-73
2023/09/16 09:04:17;;;;;;;7.78;3.95;;;25.00;94.60;;;;;;4955734;29;20027;-72
2023/09/16 09:06:44;;;;;;;5.68;3.55;;;25.10;95.60;;;;;;4956207;29;20031;-72
2023/09/16 09:09:09;;;;;;;8.13;4.35;;;25.10;95.40;;;;;;4962440;28;20516;-72
2023/09/16 09:11:36;;;;;;;9.93;5.30;;;25.30;95.30;;;;;;4975153;28;20026;-72
2023/09/16 09:14:03;;;;;;;8.18;4.97;;;24.60;95.80;;;;;;4974999;28;20027;-71
2023/09/16 09:16:30;;;;;;;8.23;4.97;;;24.40;96.20;;;;;;4975265;28;20030;-73
2023/09/16 09:18:56;;;;;;;10.50;6.10;;;24.50;96.60;;;;;;4975142;28;20078;-72
2023/09/16 09:21:23;;;;;;;10.75;6.07;;;24.70;96.70;;;;;;4974645;28;20031;-72
2023/09/16 09:23:48;;;;;;;9.98;5.90;;;24.60;97.20;;;;;;4975250;28;20019;-72
2023/09/16 09:26:14;;;;;;;10.65;6.53;;;24.60;98.40;;;;;;4980845;28;20048;-72
2023/09/16 09:28:45;;;;;;;11.30;6.75;;;24.90;99.10;;;;;;4982290;28;20476;-72
2023/09/16 09:31:11;;;;;;;9.60;6.03;;;24.60;98.30;;;;;;4974887;28;20033;-73
2023/09/16 09:33:44;;;;;;;11.13;6.30;;;25.00;98.10;;;;;;4974981;28;20105;-74
2023/09/16 09:36:13;;;;;;;13.77;6.20;;;24.80;97.90;;;;;;4974311;28;20034;-70
2023/09/16 09:38:43;;;;;;;10.70;5.57;;;24.80;98.20;;;;;;4974579;28;20122;-74
2023/09/16 09:41:09;;;;;;;18.52;7.43;;;24.50;98.20;;;;;;4978540;28;20041;-73
2023/09/16 09:43:35;;;;;;;11.15;6.63;;;24.80;99.30;;;;;;4974323;28;20070;-72
2023/09/16 09:46:02;;;;;;;15.20;5.93;;;24.90;98.80;;;;;;4977723;28;20439;-73
2023/09/16 09:48:32;;;;;;;12.38;5.38;;;25.00;97.70;;;;;;4982824;28;20380;-71
2023/09/16 09:51:01;;;;;;;10.93;6.13;;;24.50;97.10;;;;;;4974472;28;20375;-72
2023/09/16 09:53:28;;;;;;;9.65;5.95;;;24.70;97.90;;;;;;4983853;28;20429;-72
2023/09/16 09:55:54;;;;;;;7.90;5.93;;;25.10;98.70;;;;;;4977515;28;20031;-72
2023/09/16 09:58:20;;;;;;;11.85;5.60;;;25.40;96.70;;;;;;4960763;28;20034;-72
2023/09/16 10:00:47;;;;;;;9.93;6.43;;;25.40;96.50;;;;;;4979897;28;20054;-72
2023/09/16 10:03:14;;;;;;;7.05;5.13;;;25.60;96.50;;;;;;4973149;28;20121;-73
2023/09/16 10:05:40;;;;;;;7.05;5.00;;;25.00;95.30;;;;;;4977683;28;20031;-72
2023/09/16 10:08:06;;;;;;;8.93;5.10;;;25.70;96.70;;;;;;4974222;28;20471;-72
2023/09/16 10:10:34;;;;;;;7.38;4.63;;;25.90;94.80;;;;;;4973841;28;20094;-71
2023/09/16 10:13:00;;;;;;;5.90;4.35;;;26.00;95.20;;;;;;4974907;28;20415;-72
2023/09/16 10:15:28;;;;;;;9.63;4.90;;;26.10;94.40;;;;;;4964427;28;20031;-72
2023/09/16 10:17:56;;;;;;;6.60;4.68;;;26.10;93.80;;;;;;4973809;28;20039;-72
2023/09/16 10:20:22;;;;;;;6.30;4.57;;;25.70;93.20;;;;;;4974575;28;20026;-73
2023/09/16 10:22:49;;;;;;;7.50;4.70;;;25.80;94.10;;;;;;4970791;28;20034;-72
2023/09/16 10:25:17;;;;;;;8.82;4.53;;;25.90;93.50;;;;;;4970648;28;20030;-73
2023/09/16 10:28:04;;;;;;;6.88;5.15;;;25.50;94.00;;;;;;4955763;28;20122;-71
2023/09/16 10:30:32;;;;;;;7.57;4.75;;;25.50;93.50;;;;;;4965798;28;20090;-73
2023/09/16 10:33:04;;;;;;;6.60;4.30;;;25.50;94.40;;;;;;4973213;28;20033;-72
2023/09/16 10:35:32;;;;;;;6.78;4.97;;;25.60;93.50;;;;;;4967786;28;20498;-72
2023/09/16 10:38:01;;;;;;;7.88;4.90;;;25.70;94.70;;;;;;4972806;28;20406;-72
2023/09/16 10:40:27;;;;;;;8.10;4.97;;;25.80;94.50;;;;;;4972695;28;20042;-72
2023/09/16 10:42:54;;;;;;;10.15;5.53;;;25.90;94.40;;;;;;4973489;28;20027;-71
2023/09/16 10:45:21;;;;;;;10.27;5.32;;;25.80;94.00;;;;;;4980926;28;20049;-71
2023/09/16 10:47:48;;;;;;;8.40;4.75;;;26.00;94.60;;;;;;4973406;28;20019;-72
2023/09/16 10:50:15;;;;;;;7.20;4.90;;;26.10;94.10;;;;;;4973357;28;20106;-71
2023/09/16 10:52:48;;;;;;;7.90;4.60;;;26.20;93.50;;;;;;4968712;28;20050;-72
2023/09/16 10:55:16;;;;;;;6.82;4.95;;;26.20;94.10;;;;;;4959932;28;20026;-71
2023/09/16 10:58:02;;;;;;;8.77;5.85;;;26.20;93.50;;;;;;4973762;28;20031;-72
2023/09/16 11:00:37;;;;;;;6.40;4.00;;;26.40;93.20;;;;;;4972898;28;20041;-72
2023/09/16 11:03:05;;;;;;;9.73;4.85;;;26.50;92.60;;;;;;4973744;28;20550;-71
2023/09/16 11:05:32;;;;;;;7.82;4.78;;;26.50;91.00;;;;;;4944390;28;20039;-71
2023/09/16 11:07:58;;;;;;;8.27;4.90;;;26.40;90.80;;;;;;4956525;28;20038;-72
2023/09/16 11:10:25;;;;;;;7.25;4.63;;;26.60;91.70;;;;;;4972304;28;20101;-74
2023/09/16 11:12:52;;;;;;;11.80;4.80;;;26.80;93.00;;;;;;4973778;28;20129;-72
2023/09/16 11:15:18;;;;;;;9.05;4.53;;;27.20;91.50;;;;;;4971695;28;20027;-72
2023/09/16 11:17:44;;;;;;;7.63;4.60;;;27.30;91.70;;;;;;4973486;28;20101;-73
2023/09/16 11:20:28;;;;;;;4.78;3.78;;;27.60;91.60;;;;;;4973249;28;20057;-74
2023/09/16 11:22:54;;;;;;;5.75;4.45;;;27.60;87.30;;;;;;4972827;28;20034;-72
2023/09/16 11:25:20;;;;;;;6.60;4.47;;;27.40;88.40;;;;;;4968987;28;20027;-70
2023/09/16 11:27:46;;;;;;;7.10;3.70;;;27.60;89.10;;;;;;4973341;28;20053;-70
2023/09/16 11:30:16;;;;;;;5.47;4.20;;;27.50;86.90;;;;;;4973751;28;20041;-70
2023/09/16 11:33:05;;;;;;;7.50;4.28;;;27.00;87.20;;;;;;4973385;28;20374;-73
2023/09/16 11:35:34;;;;;;;9.30;4.57;;;27.00;86.00;;;;;;4971822;28;20027;-70
2023/09/16 11:37:59;;;;;;;6.40;4.03;;;27.20;90.20;;;;;;4971042;28;20038;-70
2023/09/16 11:40:31;;;;;;;8.30;4.05;;;27.30;89.50;;;;;;4972301;28;20039;-70
2023/09/16 11:42:58;;;;;;;5.93;4.00;;;27.60;89.30;;;;;;4973301;28;20030;-71
2023/09/16 11:45:25;;;;;;;5.03;3.97;;;27.70;88.40;;;;;;4972881;28;20023;-71
2023/09/16 11:47:52;;;;;;;8.25;4.40;;;27.70;88.30;;;;;;4972339;28;20031;-71
2023/09/16 11:50:24;;;;;;;11.15;5.55;;;27.20;86.60;;;;;;4962935;28;20035;-70
2023/09/16 11:52:50;;;;;;;8.90;4.32;;;26.80;87.70;;;;;;4972633;28;20034;-71
2023/09/16 11:55:17;;;;;;;10.15;4.28;;;27.20;88.30;;;;;;4973391;28;20026;-70
2023/09/16 11:57:45;;;;;;;7.07;4.38;;;27.40;89.20;;;;;;4972364;28;20382;-71
2023/09/16 12:00:12;;;;;;;5.97;4.10;;;27.50;85.60;;;;;;4972934;28;20037;-70
2023/09/16 12:02:40;;;;;;;6.93;4.05;;;27.50;85.90;;;;;;4972678;28;20395;-70
2023/09/16 12:05:06;;;;;;;4.90;3.58;;;27.50;86.30;;;;;;4972483;28;20027;-70
2023/09/16 12:07:35;;;;;;;9.18;3.80;;;27.40;83.40;;;;;;4972358;28;20102;-71
2023/09/16 12:10:02;;;;;;;4.88;3.35;;;27.20;83.90;;;;;;4958313;28;20054;-71
2023/09/16 12:12:28;;;;;;;5.38;3.95;;;27.00;83.00;;;;;;4953641;29;20035;-71
2023/09/16 12:14:55;;;;;;;6.65;3.53;;;26.50;82.50;;;;;;4952936;28;20059;-71
2023/09/16 12:17:25;;;;;;;7.25;4.28;;;26.70;84.10;;;;;;4954915;28;20031;-71
2023/09/16 12:19:52;;;;;;;7.40;4.88;;;26.70;85.60;;;;;;4956689;28;20041;-71
2023/09/16 12:22:19;;;;;;;8.52;4.45;;;26.70;85.20;;;;;;4956996;28;20042;-71
2023/09/16 12:24:45;;;;;;;7.65;3.63;;;26.80;84.10;;;;;;4956712;29;20027;-70
2023/09/16 12:27:12;;;;;;;4.65;3.35;;;26.80;82.30;;;;;;4956757;29;20035;-71
2023/09/16 12:29:38;;;;;;;7.95;4.93;;;26.50;83.10;;;;;;4956652;28;20035;-70
2023/09/16 12:32:10;;;;;;;7.63;4.68;;;26.70;86.70;;;;;;4956615;29;20149;-71
2023/09/16 12:34:36;;;;;;;7.00;4.25;;;26.80;85.70;;;;;;4954929;29;20039;-71
2023/09/16 12:37:02;;;;;;;7.28;4.75;;;26.80;84.70;;;;;;4963966;28;20039;-71
2023/09/16 12:39:33;;;;;;;8.23;5.60;;;26.90;87.20;;;;;;4963790;28;20035;-71